sensor_id;sensor_type;location;lat;lon;timestamp;P1;durP1;ratioP1;P2;durP2;ratioP2
10985;SDS011;5546;48.714;8.738;2023-02-05T00:02:25;7.10;;;4.63;;
10985;SDS011;5546;48.714;8.738;2023-02-05T00:04:50;11.50;;;5.63;;
10985;SDS011;5546;48.714;8.738;2023-02-05T00:07:17;7.10;;;5.00;;
10985;SDS011;5546;48.714;8.738;2023-02-05T00:09:43;10.67;;;5.27;;
10985;SDS011;5546;48.714;8.738;2023-02-05T00:12:08;8.53;;;5.00;;
10985;SDS011;5546;48.714;8.738;2023-02-05T00:14:34;8.70;;;4.47;;
10985;SDS011;5546;48.714;8.738;2023-02-05T00:17:00;10.43;;;5.50;;
10985;SDS011;5546;48.714;8.738;2023-02-05T00:19:25;10.23;;;5.50;;
10985;SDS011;5546;48.714;8.738;2023-02-05T00:21:51;9.17;;;5.17;;
10985;SDS011;5546;48.714;8.738;2023-02-05T00:24:16;10.50;;;5.50;;
10985;SDS011;5546;48.714;8.738;2023-02-05T00:26:42;8.40;;;5.73;;
10985;SDS011;5546;48.714;8.738;2023-02-05T00:29:08;10.03;;;5.50;;
10985;SDS011;5546;48.714;8.738;2023-02-05T00:31:33;12.43;;;5.60;;
10985;SDS011;5546;48.714;8.738;2023-02-05T00:33:59;10.77;;;5.37;;
10985;SDS011;5546;48.714;8.738;2023-02-05T00:36:24;8.43;;;5.00;;
10985;SDS011;5546;48.714;8.738;2023-02-05T00:38:50;9.20;;;5.50;;
10985;SDS011;5546;48.714;8.738;2023-02-05T00:41:16;10.83;;;5.20;;
10985;SDS011;5546;48.714;8.738;2023-02-05T00:43:42;11.17;;;6.27;;
10985;SDS011;5546;48.714;8.738;2023-02-05T00:46:08;11.47;;;6.10;;
10985;SDS011;5546;48.714;8.738;2023-02-05T00:48:34;11.63;;;6.27;;
10985;SDS011;5546;48.714;8.738;2023-02-05T00:51:00;9.87;;;5.57;;
10985;SDS011;5546;48.714;8.738;2023-02-05T00:53:25;10.40;;;5.13;;
10985;SDS011;5546;48.714;8.738;2023-02-05T00:55:51;10.33;;;5.67;;
10985;SDS011;5546;48.714;8.738;2023-02-05T00:58:17;8.87;;;6.07;;
10985;SDS011;5546;48.714;8.738;2023-02-05T01:00:43;10.10;;;5.53;;
10985;SDS011;5546;48.714;8.738;2023-02-05T01:03:09;10.73;;;5.77;;
10985;SDS011;5546;48.714;8.738;2023-02-05T01:05:35;14.13;;;6.33;;
10985;SDS011;5546;48.714;8.738;2023-02-05T01:08:01;13.63;;;6.47;;
10985;SDS011;5546;48.714;8.738;2023-02-05T01:10:27;8.27;;;5.23;;
10985;SDS011;5546;48.714;8.738;2023-02-05T01:12:52;11.20;;;5.93;;
10985;SDS011;5546;48.714;8.738;2023-02-05T01:15:18;13.93;;;6.40;;
10985;SDS011;5546;48.714;8.738;2023-02-05T01:17:44;9.97;;;5.63;;
10985;SDS011;5546;48.714;8.738;2023-02-05T01:20:10;9.13;;;5.20;;
10985;SDS011;5546;48.714;8.738;2023-02-05T01:22:37;11.70;;;6.17;;
10985;SDS011;5546;48.714;8.738;2023-02-05T01:25:03;12.20;;;5.63;;
10985;SDS011;5546;48.714;8.738;2023-02-05T01:27:30;12.00;;;6.33;;
10985;SDS011;5546;48.714;8.738;2023-02-05T01:29:56;9.33;;;6.00;;
10985;SDS011;5546;48.714;8.738;2023-02-05T01:32:22;10.97;;;5.57;;
10985;SDS011;5546;48.714;8.738;2023-02-05T01:34:47;8.43;;;5.27;;
10985;SDS011;5546;48.714;8.738;2023-02-05T01:37:13;15.30;;;5.80;;
10985;SDS011;5546;48.714;8.738;2023-02-05T01:39:38;9.20;;;5.57;;
10985;SDS011;5546;48.714;8.738;2023-02-05T01:42:05;13.43;;;6.27;;
10985;SDS011;5546;48.714;8.738;2023-02-05T01:45:19;11.63;;;6.13;;
10985;SDS011;5546;48.714;8.738;2023-02-05T01:47:45;10.40;;;5.60;;
10985;SDS011;5546;48.714;8.738;2023-02-05T01:50:31;9.07;;;5.27;;
10985;SDS011;5546;48.714;8.738;2023-02-05T01:53:07;9.70;;;5.50;;
10985;SDS011;5546;48.714;8.738;2023-02-05T01:55:39;10.80;;;5.23;;
10985;SDS011;5546;48.714;8.738;2023-02-05T01:58:08;9.70;;;5.77;;
10985;SDS011;5546;48.714;8.738;2023-02-05T02:00:34;10.37;;;5.83;;
10985;SDS011;5546;48.714;8.738;2023-02-05T02:02:59;8.23;;;5.57;;
10985;SDS011;5546;48.714;8.738;2023-02-05T02:05:25;8.87;;;5.23;;
10985;SDS011;5546;48.714;8.738;2023-02-05T02:07:51;10.80;;;5.63;;
10985;SDS011;5546;48.714;8.738;2023-02-05T02:10:16;11.37;;;6.00;;
10985;SDS011;5546;48.714;8.738;2023-02-05T02:12:43;9.60;;;5.37;;
10985;SDS011;5546;48.714;8.738;2023-02-05T02:15:12;11.07;;;6.30;;
10985;SDS011;5546;48.714;8.738;2023-02-05T02:17:42;8.97;;;5.27;;
10985;SDS011;5546;48.714;8.738;2023-02-05T02:20:12;9.00;;;5.73;;
10985;SDS011;5546;48.714;8.738;2023-02-05T02:28:09;11.33;;;5.63;;
10985;SDS011;5546;48.714;8.738;2023-02-05T02:30:45;8.60;;;4.43;;
10985;SDS011;5546;48.714;8.738;2023-02-05T02:33:27;6.70;;;4.77;;
10985;SDS011;5546;48.714;8.738;2023-02-05T02:36:05;8.97;;;5.73;;
10985;SDS011;5546;48.714;8.738;2023-02-05T02:41:51;9.90;;;5.23;;
10985;SDS011;5546;48.714;8.738;2023-02-05T02:44:27;9.00;;;5.23;;
10985;SDS011;5546;48.714;8.738;2023-02-05T02:47:00;7.90;;;4.67;;
10985;SDS011;5546;48.714;8.738;2023-02-05T02:49:41;11.53;;;5.40;;
10985;SDS011;5546;48.714;8.738;2023-02-05T02:52:12;9.33;;;4.30;;
10985;SDS011;5546;48.714;8.738;2023-02-05T02:54:40;9.13;;;5.17;;
10985;SDS011;5546;48.714;8.738;2023-02-05T02:57:10;8.10;;;4.80;;
10985;SDS011;5546;48.714;8.738;2023-02-05T02:59:38;9.20;;;5.60;;
10985;SDS011;5546;48.714;8.738;2023-02-05T03:02:08;9.70;;;5.03;;
10985;SDS011;5546;48.714;8.738;2023-02-05T03:04:36;9.17;;;4.90;;
10985;SDS011;5546;48.714;8.738;2023-02-05T03:07:06;8.10;;;5.73;;
10985;SDS011;5546;48.714;8.738;2023-02-05T03:09:45;8.17;;;5.83;;
10985;SDS011;5546;48.714;8.738;2023-02-05T03:12:25;9.07;;;5.00;;
10985;SDS011;5546;48.714;8.738;2023-02-05T03:14:51;11.47;;;5.40;;
10985;SDS011;5546;48.714;8.738;2023-02-05T03:17:18;10.60;;;6.27;;
10985;SDS011;5546;48.714;8.738;2023-02-05T03:19:47;11.43;;;6.57;;
10985;SDS011;5546;48.714;8.738;2023-02-05T03:22:27;12.03;;;5.87;;
10985;SDS011;5546;48.714;8.738;2023-02-05T03:24:52;10.13;;;6.40;;
10985;SDS011;5546;48.714;8.738;2023-02-05T03:27:19;8.77;;;6.10;;
10985;SDS011;5546;48.714;8.738;2023-02-05T03:29:46;12.40;;;5.57;;
10985;SDS011;5546;48.714;8.738;2023-02-05T03:34:58;8.27;;;5.47;;
10985;SDS011;5546;48.714;8.738;2023-02-05T03:37:45;13.93;;;6.67;;
10985;SDS011;5546;48.714;8.738;2023-02-05T03:48:44;10.67;;;6.37;;
10985;SDS011;5546;48.714;8.738;2023-02-05T03:51:27;9.27;;;5.83;;
10985;SDS011;5546;48.714;8.738;2023-02-05T03:56:51;10.97;;;5.13;;
10985;SDS011;5546;48.714;8.738;2023-02-05T03:59:23;7.13;;;4.70;;
10985;SDS011;5546;48.714;8.738;2023-02-05T04:01:51;8.73;;;5.27;;
10985;SDS011;5546;48.714;8.738;2023-02-05T04:04:17;8.90;;;5.83;;
10985;SDS011;5546;48.714;8.738;2023-02-05T04:06:45;11.40;;;5.90;;
10985;SDS011;5546;48.714;8.738;2023-02-05T04:09:11;11.10;;;6.67;;
10985;SDS011;5546;48.714;8.738;2023-02-05T04:11:37;9.53;;;4.50;;
10985;SDS011;5546;48.714;8.738;2023-02-05T04:14:03;7.13;;;4.40;;
10985;SDS011;5546;48.714;8.738;2023-02-05T04:16:29;6.83;;;5.10;;
10985;SDS011;5546;48.714;8.738;2023-02-05T04:18:54;9.00;;;5.30;;
10985;SDS011;5546;48.714;8.738;2023-02-05T04:21:20;9.03;;;4.90;;
10985;SDS011;5546;48.714;8.738;2023-02-05T04:23:45;12.17;;;5.40;;
10985;SDS011;5546;48.714;8.738;2023-02-05T04:26:11;13.90;;;6.13;;
10985;SDS011;5546;48.714;8.738;2023-02-05T04:28:36;10.57;;;6.30;;
10985;SDS011;5546;48.714;8.738;2023-02-05T04:31:04;14.80;;;6.43;;
10985;SDS011;5546;48.714;8.738;2023-02-05T04:33:31;11.60;;;6.57;;
10985;SDS011;5546;48.714;8.738;2023-02-05T04:35:57;15.77;;;7.13;;
10985;SDS011;5546;48.714;8.738;2023-02-05T04:38:23;11.80;;;5.90;;
10985;SDS011;5546;48.714;8.738;2023-02-05T04:40:49;10.33;;;5.90;;
10985;SDS011;5546;48.714;8.738;2023-02-05T04:43:14;13.13;;;5.97;;
10985;SDS011;5546;48.714;8.738;2023-02-05T04:45:40;8.83;;;5.93;;
10985;SDS011;5546;48.714;8.738;2023-02-05T04:48:05;7.63;;;5.90;;
10985;SDS011;5546;48.714;8.738;2023-02-05T04:50:31;8.93;;;5.97;;
10985;SDS011;5546;48.714;8.738;2023-02-05T04:52:57;9.63;;;5.50;;
10985;SDS011;5546;48.714;8.738;2023-02-05T04:55:22;9.33;;;5.67;;
10985;SDS011;5546;48.714;8.738;2023-02-05T04:57:48;9.23;;;5.67;;
10985;SDS011;5546;48.714;8.738;2023-02-05T05:00:13;7.20;;;5.17;;
10985;SDS011;5546;48.714;8.738;2023-02-05T05:02:39;7.87;;;5.67;;
10985;SDS011;5546;48.714;8.738;2023-02-05T05:05:05;9.33;;;5.43;;
10985;SDS011;5546;48.714;8.738;2023-02-05T05:07:31;8.07;;;5.30;;
10985;SDS011;5546;48.714;8.738;2023-02-05T05:09:56;10.43;;;5.50;;
10985;SDS011;5546;48.714;8.738;2023-02-05T05:12:22;7.83;;;5.77;;
10985;SDS011;5546;48.714;8.738;2023-02-05T05:14:47;8.80;;;5.50;;
10985;SDS011;5546;48.714;8.738;2023-02-05T05:17:13;8.90;;;5.67;;
10985;SDS011;5546;48.714;8.738;2023-02-05T05:19:39;8.03;;;5.27;;
10985;SDS011;5546;48.714;8.738;2023-02-05T05:22:04;7.57;;;5.37;;
10985;SDS011;5546;48.714;8.738;2023-02-05T05:24:30;9.93;;;5.70;;
10985;SDS011;5546;48.714;8.738;2023-02-05T05:26:55;9.73;;;5.43;;
10985;SDS011;5546;48.714;8.738;2023-02-05T05:29:21;10.87;;;5.43;;
10985;SDS011;5546;48.714;8.738;2023-02-05T05:31:47;9.60;;;6.20;;
10985;SDS011;5546;48.714;8.738;2023-02-05T05:34:15;9.33;;;5.40;;
10985;SDS011;5546;48.714;8.738;2023-02-05T05:36:40;9.17;;;5.70;;
10985;SDS011;5546;48.714;8.738;2023-02-05T05:39:07;7.23;;;5.27;;
10985;SDS011;5546;48.714;8.738;2023-02-05T05:41:52;7.77;;;5.20;;
10985;SDS011;5546;48.714;8.738;2023-02-05T05:44:36;7.53;;;5.10;;
10985;SDS011;5546;48.714;8.738;2023-02-05T05:47:02;9.10;;;4.70;;
10985;SDS011;5546;48.714;8.738;2023-02-05T05:49:27;8.13;;;4.77;;
10985;SDS011;5546;48.714;8.738;2023-02-05T05:51:53;8.53;;;5.93;;
10985;SDS011;5546;48.714;8.738;2023-02-05T05:54:18;6.43;;;4.83;;
10985;SDS011;5546;48.714;8.738;2023-02-05T05:56:44;7.10;;;5.03;;
10985;SDS011;5546;48.714;8.738;2023-02-05T05:59:10;7.17;;;4.97;;
10985;SDS011;5546;48.714;8.738;2023-02-05T06:01:36;5.87;;;4.63;;
10985;SDS011;5546;48.714;8.738;2023-02-05T06:04:02;6.03;;;4.47;;
10985;SDS011;5546;48.714;8.738;2023-02-05T06:06:28;7.80;;;4.80;;
10985;SDS011;5546;48.714;8.738;2023-02-05T06:08:53;7.57;;;4.30;;
10985;SDS011;5546;48.714;8.738;2023-02-05T06:11:19;5.57;;;4.20;;
10985;SDS011;5546;48.714;8.738;2023-02-05T06:13:44;9.20;;;4.97;;
10985;SDS011;5546;48.714;8.738;2023-02-05T06:16:10;8.77;;;4.93;;
10985;SDS011;5546;48.714;8.738;2023-02-05T06:18:35;10.90;;;5.37;;
10985;SDS011;5546;48.714;8.738;2023-02-05T06:21:01;7.33;;;5.03;;
10985;SDS011;5546;48.714;8.738;2023-02-05T06:23:29;8.33;;;5.07;;
10985;SDS011;5546;48.714;8.738;2023-02-05T06:25:55;6.50;;;5.20;;
10985;SDS011;5546;48.714;8.738;2023-02-05T06:28:21;9.93;;;5.10;;
10985;SDS011;5546;48.714;8.738;2023-02-05T06:30:46;8.20;;;5.27;;
10985;SDS011;5546;48.714;8.738;2023-02-05T06:33:12;7.80;;;5.47;;
10985;SDS011;5546;48.714;8.738;2023-02-05T06:35:38;9.53;;;5.57;;
10985;SDS011;5546;48.714;8.738;2023-02-05T06:38:04;6.07;;;4.30;;
10985;SDS011;5546;48.714;8.738;2023-02-05T06:40:30;7.00;;;4.47;;
10985;SDS011;5546;48.714;8.738;2023-02-05T06:42:55;8.10;;;5.07;;
10985;SDS011;5546;48.714;8.738;2023-02-05T06:45:21;5.87;;;4.23;;
10985;SDS011;5546;48.714;8.738;2023-02-05T06:47:46;5.73;;;4.17;;
10985;SDS011;5546;48.714;8.738;2023-02-05T06:50:12;6.60;;;4.27;;
10985;SDS011;5546;48.714;8.738;2023-02-05T06:52:38;7.40;;;4.47;;
10985;SDS011;5546;48.714;8.738;2023-02-05T06:55:04;5.20;;;4.53;;
10985;SDS011;5546;48.714;8.738;2023-02-05T06:57:30;6.33;;;4.33;;
10985;SDS011;5546;48.714;8.738;2023-02-05T06:59:58;6.77;;;4.43;;
10985;SDS011;5546;48.714;8.738;2023-02-05T07:02:24;6.27;;;4.40;;
10985;SDS011;5546;48.714;8.738;2023-02-05T07:04:49;7.70;;;4.03;;
10985;SDS011;5546;48.714;8.738;2023-02-05T07:07:15;5.13;;;4.20;;
10985;SDS011;5546;48.714;8.738;2023-02-05T07:09:41;5.13;;;4.50;;
10985;SDS011;5546;48.714;8.738;2023-02-05T07:12:07;7.77;;;4.67;;
10985;SDS011;5546;48.714;8.738;2023-02-05T07:14:36;7.83;;;4.33;;
10985;SDS011;5546;48.714;8.738;2023-02-05T07:17:02;5.43;;;4.63;;
10985;SDS011;5546;48.714;8.738;2023-02-05T07:19:28;6.53;;;4.63;;
10985;SDS011;5546;48.714;8.738;2023-02-05T07:21:53;5.40;;;4.07;;
10985;SDS011;5546;48.714;8.738;2023-02-05T07:24:19;7.33;;;4.30;;
10985;SDS011;5546;48.714;8.738;2023-02-05T07:26:44;6.70;;;4.17;;
10985;SDS011;5546;48.714;8.738;2023-02-05T07:29:10;6.00;;;4.33;;
10985;SDS011;5546;48.714;8.738;2023-02-05T07:31:35;6.77;;;4.57;;
10985;SDS011;5546;48.714;8.738;2023-02-05T07:34:01;6.93;;;4.00;;
10985;SDS011;5546;48.714;8.738;2023-02-05T07:36:27;5.97;;;4.77;;
10985;SDS011;5546;48.714;8.738;2023-02-05T07:38:52;6.17;;;4.30;;
10985;SDS011;5546;48.714;8.738;2023-02-05T07:41:18;4.60;;;3.63;;
10985;SDS011;5546;48.714;8.738;2023-02-05T07:43:43;5.53;;;4.50;;
10985;SDS011;5546;48.714;8.738;2023-02-05T07:46:10;4.80;;;3.83;;
10985;SDS011;5546;48.714;8.738;2023-02-05T07:48:37;7.30;;;4.30;;
10985;SDS011;5546;48.714;8.738;2023-02-05T07:51:03;8.30;;;5.00;;
10985;SDS011;5546;48.714;8.738;2023-02-05T07:53:29;8.30;;;4.67;;
10985;SDS011;5546;48.714;8.738;2023-02-05T07:55:55;8.50;;;5.27;;
10985;SDS011;5546;48.714;8.738;2023-02-05T07:58:21;7.33;;;4.70;;
10985;SDS011;5546;48.714;8.738;2023-02-05T08:00:47;8.23;;;4.43;;
10985;SDS011;5546;48.714;8.738;2023-02-05T08:03:12;6.37;;;4.97;;
10985;SDS011;5546;48.714;8.738;2023-02-05T08:05:38;6.57;;;5.07;;
10985;SDS011;5546;48.714;8.738;2023-02-05T08:08:04;8.40;;;5.50;;
10985;SDS011;5546;48.714;8.738;2023-02-05T08:10:30;7.77;;;4.60;;
10985;SDS011;5546;48.714;8.738;2023-02-05T08:12:56;7.70;;;4.73;;
10985;SDS011;5546;48.714;8.738;2023-02-05T08:15:22;8.63;;;5.23;;
10985;SDS011;5546;48.714;8.738;2023-02-05T08:17:47;8.97;;;4.97;;
10985;SDS011;5546;48.714;8.738;2023-02-05T08:20:13;7.17;;;5.47;;
10985;SDS011;5546;48.714;8.738;2023-02-05T08:22:39;6.10;;;4.87;;
10985;SDS011;5546;48.714;8.738;2023-02-05T08:25:07;11.90;;;5.30;;
10985;SDS011;5546;48.714;8.738;2023-02-05T08:27:36;8.20;;;5.27;;
10985;SDS011;5546;48.714;8.738;2023-02-05T08:30:03;7.70;;;4.83;;
10985;SDS011;5546;48.714;8.738;2023-02-05T08:32:30;12.13;;;4.97;;
10985;SDS011;5546;48.714;8.738;2023-02-05T08:34:56;6.63;;;4.27;;
10985;SDS011;5546;48.714;8.738;2023-02-05T08:37:22;7.97;;;4.87;;
10985;SDS011;5546;48.714;8.738;2023-02-05T08:39:48;10.83;;;5.07;;
10985;SDS011;5546;48.714;8.738;2023-02-05T08:42:14;7.93;;;4.83;;
10985;SDS011;5546;48.714;8.738;2023-02-05T08:44:40;8.27;;;4.60;;
10985;SDS011;5546;48.714;8.738;2023-02-05T08:47:06;8.33;;;4.90;;
10985;SDS011;5546;48.714;8.738;2023-02-05T08:49:31;7.13;;;4.60;;
10985;SDS011;5546;48.714;8.738;2023-02-05T08:51:56;8.00;;;4.53;;
10985;SDS011;5546;48.714;8.738;2023-02-05T08:54:22;11.50;;;5.00;;
10985;SDS011;5546;48.714;8.738;2023-02-05T08:56:48;9.20;;;4.63;;
10985;SDS011;5546;48.714;8.738;2023-02-05T08:59:15;7.30;;;4.13;;
10985;SDS011;5546;48.714;8.738;2023-02-05T09:01:40;8.47;;;4.83;;
10985;SDS011;5546;48.714;8.738;2023-02-05T09:04:07;7.87;;;5.33;;
10985;SDS011;5546;48.714;8.738;2023-02-05T09:06:38;10.73;;;5.10;;
10985;SDS011;5546;48.714;8.738;2023-02-05T09:09:04;8.43;;;4.57;;
10985;SDS011;5546;48.714;8.738;2023-02-05T09:11:30;7.47;;;4.90;;
10985;SDS011;5546;48.714;8.738;2023-02-05T09:13:58;8.67;;;4.67;;
10985;SDS011;5546;48.714;8.738;2023-02-05T09:16:24;7.87;;;4.83;;
10985;SDS011;5546;48.714;8.738;2023-02-05T09:18:52;9.30;;;5.23;;
10985;SDS011;5546;48.714;8.738;2023-02-05T09:21:19;9.23;;;5.13;;
10985;SDS011;5546;48.714;8.738;2023-02-05T09:23:45;6.87;;;5.13;;
10985;SDS011;5546;48.714;8.738;2023-02-05T09:26:11;9.00;;;5.57;;
10985;SDS011;5546;48.714;8.738;2023-02-05T09:28:36;9.30;;;5.43;;
10985;SDS011;5546;48.714;8.738;2023-02-05T09:31:06;10.20;;;5.13;;
10985;SDS011;5546;48.714;8.738;2023-02-05T09:33:38;9.33;;;5.03;;
10985;SDS011;5546;48.714;8.738;2023-02-05T09:38:38;12.70;;;6.97;;
10985;SDS011;5546;48.714;8.738;2023-02-05T09:46:39;11.03;;;7.07;;
10985;SDS011;5546;48.714;8.738;2023-02-05T09:49:20;12.17;;;7.57;;
10985;SDS011;5546;48.714;8.738;2023-02-05T09:51:52;11.13;;;8.30;;
10985;SDS011;5546;48.714;8.738;2023-02-05T09:54:23;9.23;;;6.80;;
10985;SDS011;5546;48.714;8.738;2023-02-05T09:56:52;11.57;;;6.87;;
10985;SDS011;5546;48.714;8.738;2023-02-05T09:59:22;10.77;;;6.97;;
10985;SDS011;5546;48.714;8.738;2023-02-05T10:01:52;10.33;;;6.87;;
10985;SDS011;5546;48.714;8.738;2023-02-05T10:04:21;15.03;;;9.43;;
10985;SDS011;5546;48.714;8.738;2023-02-05T10:09:40;11.60;;;7.07;;
10985;SDS011;5546;48.714;8.738;2023-02-05T10:12:37;11.57;;;7.90;;
10985;SDS011;5546;48.714;8.738;2023-02-05T10:18:12;12.27;;;7.63;;
10985;SDS011;5546;48.714;8.738;2023-02-05T10:26:50;12.03;;;6.40;;
10985;SDS011;5546;48.714;8.738;2023-02-05T10:31:51;11.70;;;6.80;;
10985;SDS011;5546;48.714;8.738;2023-02-05T10:34:55;11.43;;;5.87;;
10985;SDS011;5546;48.714;8.738;2023-02-05T10:37:34;11.37;;;6.43;;
10985;SDS011;5546;48.714;8.738;2023-02-05T10:40:13;9.67;;;6.57;;
10985;SDS011;5546;48.714;8.738;2023-02-05T10:42:51;8.87;;;6.23;;
10985;SDS011;5546;48.714;8.738;2023-02-05T10:45:21;29.70;;;15.23;;
10985;SDS011;5546;48.714;8.738;2023-02-05T10:47:59;25.23;;;15.97;;
10985;SDS011;5546;48.714;8.738;2023-02-05T10:50:52;20.83;;;12.40;;
10985;SDS011;5546;48.714;8.738;2023-02-05T10:53:23;17.93;;;12.57;;
10985;SDS011;5546;48.714;8.738;2023-02-05T10:55:50;17.60;;;10.33;;
10985;SDS011;5546;48.714;8.738;2023-02-05T11:01:21;12.77;;;8.63;;
10985;SDS011;5546;48.714;8.738;2023-02-05T11:03:56;14.70;;;7.40;;
10985;SDS011;5546;48.714;8.738;2023-02-05T11:06:26;10.63;;;4.90;;
10985;SDS011;5546;48.714;8.738;2023-02-05T11:08:54;10.43;;;5.43;;
10985;SDS011;5546;48.714;8.738;2023-02-05T11:11:26;9.63;;;5.53;;
10985;SDS011;5546;48.714;8.738;2023-02-05T11:13:55;8.73;;;6.00;;
10985;SDS011;5546;48.714;8.738;2023-02-05T11:16:24;9.67;;;5.83;;
10985;SDS011;5546;48.714;8.738;2023-02-05T11:19:01;13.17;;;5.53;;
10985;SDS011;5546;48.714;8.738;2023-02-05T11:24:20;12.10;;;7.87;;
10985;SDS011;5546;48.714;8.738;2023-02-05T11:29:51;9.73;;;6.30;;
10985;SDS011;5546;48.714;8.738;2023-02-05T11:32:30;12.07;;;6.80;;
10985;SDS011;5546;48.714;8.738;2023-02-05T11:37:54;12.13;;;7.30;;
10985;SDS011;5546;48.714;8.738;2023-02-05T11:40:40;11.23;;;7.00;;
10985;SDS011;5546;48.714;8.738;2023-02-05T11:43:06;13.27;;;7.97;;
10985;SDS011;5546;48.714;8.738;2023-02-05T11:45:45;8.93;;;6.33;;
10985;SDS011;5546;48.714;8.738;2023-02-05T11:51:26;10.20;;;5.30;;
10985;SDS011;5546;48.714;8.738;2023-02-05T11:54:01;12.00;;;6.97;;
10985;SDS011;5546;48.714;8.738;2023-02-05T11:56:32;7.80;;;6.00;;
10985;SDS011;5546;48.714;8.738;2023-02-05T12:01:24;10.03;;;6.23;;
10985;SDS011;5546;48.714;8.738;2023-02-05T12:04:37;10.27;;;5.60;;
10985;SDS011;5546;48.714;8.738;2023-02-05T12:09:19;13.83;;;7.83;;
10985;SDS011;5546;48.714;8.738;2023-02-05T12:11:51;12.87;;;7.20;;
10985;SDS011;5546;48.714;8.738;2023-02-05T12:22:50;12.73;;;7.90;;
10985;SDS011;5546;48.714;8.738;2023-02-05T12:25:56;15.33;;;8.53;;
10985;SDS011;5546;48.714;8.738;2023-02-05T12:37:06;10.23;;;6.77;;
10985;SDS011;5546;48.714;8.738;2023-02-05T12:39:44;8.53;;;5.33;;
10985;SDS011;5546;48.714;8.738;2023-02-05T12:42:17;5.13;;;4.00;;
10985;SDS011;5546;48.714;8.738;2023-02-05T12:45:07;8.20;;;4.77;;
10985;SDS011;5546;48.714;8.738;2023-02-05T12:47:57;6.57;;;4.60;;
10985;SDS011;5546;48.714;8.738;2023-02-05T12:56:27;5.30;;;4.13;;
10985;SDS011;5546;48.714;8.738;2023-02-05T12:59:34;5.90;;;4.07;;
10985;SDS011;5546;48.714;8.738;2023-02-05T13:02:13;8.07;;;3.83;;
10985;SDS011;5546;48.714;8.738;2023-02-05T13:04:44;4.00;;;3.50;;
10985;SDS011;5546;48.714;8.738;2023-02-05T13:07:20;6.57;;;4.37;;
10985;SDS011;5546;48.714;8.738;2023-02-05T13:10:15;6.53;;;3.90;;
10985;SDS011;5546;48.714;8.738;2023-02-05T13:12:46;4.03;;;3.60;;
10985;SDS011;5546;48.714;8.738;2023-02-05T13:15:20;5.73;;;4.47;;
10985;SDS011;5546;48.714;8.738;2023-02-05T13:20:32;3.40;;;3.10;;
10985;SDS011;5546;48.714;8.738;2023-02-05T13:23:26;4.73;;;3.77;;
10985;SDS011;5546;48.714;8.738;2023-02-05T13:26:15;5.63;;;3.47;;
10985;SDS011;5546;48.714;8.738;2023-02-05T13:29:01;7.20;;;3.77;;
10985;SDS011;5546;48.714;8.738;2023-02-05T13:31:34;4.60;;;2.90;;
10985;SDS011;5546;48.714;8.738;2023-02-05T13:34:05;3.23;;;2.60;;
10985;SDS011;5546;48.714;8.738;2023-02-05T13:56:20;2.77;;;2.37;;
10985;SDS011;5546;48.714;8.738;2023-02-05T13:59:02;3.03;;;2.60;;
10985;SDS011;5546;48.714;8.738;2023-02-05T14:01:42;2.00;;;1.70;;
10985;SDS011;5546;48.714;8.738;2023-02-05T14:06:40;4.07;;;1.90;;
10985;SDS011;5546;48.714;8.738;2023-02-05T14:09:16;3.90;;;2.80;;
10985;SDS011;5546;48.714;8.738;2023-02-05T14:16:49;3.13;;;2.33;;
10985;SDS011;5546;48.714;8.738;2023-02-05T14:19:57;2.73;;;1.70;;
10985;SDS011;5546;48.714;8.738;2023-02-05T14:22:09;2.40;;;1.80;;
10985;SDS011;5546;48.714;8.738;2023-02-05T14:27:04;1.60;;;1.50;;
10985;SDS011;5546;48.714;8.738;2023-02-05T14:29:49;1.70;;;1.20;;
10985;SDS011;5546;48.714;8.738;2023-02-05T14:34:56;1.33;;;1.20;;
10985;SDS011;5546;48.714;8.738;2023-02-05T14:37:24;2.07;;;1.57;;
10985;SDS011;5546;48.714;8.738;2023-02-05T14:39:56;2.37;;;1.93;;
10985;SDS011;5546;48.714;8.738;2023-02-05T14:42:23;2.37;;;1.47;;
10985;SDS011;5546;48.714;8.738;2023-02-05T14:44:53;2.57;;;2.33;;
10985;SDS011;5546;48.714;8.738;2023-02-05T14:47:22;4.17;;;2.80;;
10985;SDS011;5546;48.714;8.738;2023-02-05T14:50:03;1.70;;;1.30;;
10985;SDS011;5546;48.714;8.738;2023-02-05T14:52:38;1.67;;;1.30;;
10985;SDS011;5546;48.714;8.738;2023-02-05T14:57:47;1.73;;;1.50;;
10985;SDS011;5546;48.714;8.738;2023-02-05T15:02:54;2.33;;;1.80;;
10985;SDS011;5546;48.714;8.738;2023-02-05T15:05:34;2.27;;;1.27;;
10985;SDS011;5546;48.714;8.738;2023-02-05T15:08:21;1.90;;;1.67;;
10985;SDS011;5546;48.714;8.738;2023-02-05T15:16:47;2.33;;;1.93;;
10985;SDS011;5546;48.714;8.738;2023-02-05T15:19:33;3.00;;;2.70;;
10985;SDS011;5546;48.714;8.738;2023-02-05T15:22:05;1.93;;;1.50;;
10985;SDS011;5546;48.714;8.738;2023-02-05T15:24:46;3.47;;;1.57;;
10985;SDS011;5546;48.714;8.738;2023-02-05T15:27:13;1.23;;;1.00;;
10985;SDS011;5546;48.714;8.738;2023-02-05T15:32:24;2.07;;;1.70;;
10985;SDS011;5546;48.714;8.738;2023-02-05T15:35:04;2.60;;;1.80;;
10985;SDS011;5546;48.714;8.738;2023-02-05T15:37:39;2.10;;;1.80;;
10985;SDS011;5546;48.714;8.738;2023-02-05T15:40:16;2.07;;;1.87;;
10985;SDS011;5546;48.714;8.738;2023-02-05T15:42:46;2.73;;;2.10;;
10985;SDS011;5546;48.714;8.738;2023-02-05T15:45:25;2.90;;;1.90;;
10985;SDS011;5546;48.714;8.738;2023-02-05T15:47:58;2.70;;;1.70;;
10985;SDS011;5546;48.714;8.738;2023-02-05T15:50:45;2.33;;;1.83;;
10985;SDS011;5546;48.714;8.738;2023-02-05T15:53:21;3.50;;;1.93;;
10985;SDS011;5546;48.714;8.738;2023-02-05T15:56:13;1.80;;;1.70;;
10985;SDS011;5546;48.714;8.738;2023-02-05T15:58:49;2.90;;;2.60;;
10985;SDS011;5546;48.714;8.738;2023-02-05T16:01:21;3.47;;;2.60;;
10985;SDS011;5546;48.714;8.738;2023-02-05T16:03:55;3.07;;;2.50;;
10985;SDS011;5546;48.714;8.738;2023-02-05T16:06:22;3.43;;;2.40;;
10985;SDS011;5546;48.714;8.738;2023-02-05T16:08:49;2.67;;;2.23;;
10985;SDS011;5546;48.714;8.738;2023-02-05T16:11:30;2.60;;;2.27;;
10985;SDS011;5546;48.714;8.738;2023-02-05T16:16:43;3.77;;;2.80;;
10985;SDS011;5546;48.714;8.738;2023-02-05T16:19:16;2.80;;;2.60;;
10985;SDS011;5546;48.714;8.738;2023-02-05T16:22:03;3.03;;;2.73;;
10985;SDS011;5546;48.714;8.738;2023-02-05T16:24:41;3.07;;;2.57;;
10985;SDS011;5546;48.714;8.738;2023-02-05T16:27:16;4.07;;;3.33;;
10985;SDS011;5546;48.714;8.738;2023-02-05T16:30:06;3.63;;;3.03;;
10985;SDS011;5546;48.714;8.738;2023-02-05T16:32:41;4.50;;;3.10;;
10985;SDS011;5546;48.714;8.738;2023-02-05T16:35:07;3.70;;;3.33;;
10985;SDS011;5546;48.714;8.738;2023-02-05T16:37:42;7.07;;;4.47;;
10985;SDS011;5546;48.714;8.738;2023-02-05T16:40:08;5.33;;;4.03;;
10985;SDS011;5546;48.714;8.738;2023-02-05T16:42:37;3.57;;;3.10;;
10985;SDS011;5546;48.714;8.738;2023-02-05T16:47:32;3.43;;;3.10;;
10985;SDS011;5546;48.714;8.738;2023-02-05T16:49:59;4.87;;;3.80;;
10985;SDS011;5546;48.714;8.738;2023-02-05T16:55:12;5.23;;;4.17;;
10985;SDS011;5546;48.714;8.738;2023-02-05T16:57:48;4.17;;;3.60;;
10985;SDS011;5546;48.714;8.738;2023-02-05T17:00:24;5.07;;;3.67;;
10985;SDS011;5546;48.714;8.738;2023-02-05T17:03:03;5.07;;;3.90;;
10985;SDS011;5546;48.714;8.738;2023-02-05T17:05:43;4.70;;;4.20;;
10985;SDS011;5546;48.714;8.738;2023-02-05T17:08:25;4.80;;;4.23;;
10985;SDS011;5546;48.714;8.738;2023-02-05T17:10:56;6.20;;;4.50;;
10985;SDS011;5546;48.714;8.738;2023-02-05T17:15:51;5.07;;;4.43;;
10985;SDS011;5546;48.714;8.738;2023-02-05T17:20:44;6.80;;;5.33;;
10985;SDS011;5546;48.714;8.738;2023-02-05T17:23:11;5.27;;;4.63;;
10985;SDS011;5546;48.714;8.738;2023-02-05T17:28:23;4.90;;;4.40;;
10985;SDS011;5546;48.714;8.738;2023-02-05T17:30:51;5.97;;;4.10;;
10985;SDS011;5546;48.714;8.738;2023-02-05T17:33:19;5.00;;;4.50;;
10985;SDS011;5546;48.714;8.738;2023-02-05T17:35:47;4.93;;;4.20;;
10985;SDS011;5546;48.714;8.738;2023-02-05T17:38:13;5.37;;;4.40;;
10985;SDS011;5546;48.714;8.738;2023-02-05T17:40:39;5.23;;;4.13;;
10985;SDS011;5546;48.714;8.738;2023-02-05T17:43:05;5.10;;;4.43;;
10985;SDS011;5546;48.714;8.738;2023-02-05T17:45:32;4.23;;;3.83;;
10985;SDS011;5546;48.714;8.738;2023-02-05T17:47:59;6.43;;;4.93;;
10985;SDS011;5546;48.714;8.738;2023-02-05T17:50:25;5.60;;;4.90;;